Time;durP1;ratioP1;P1;durP2;ratioP2;P2;SDS_P1;SDS_P2;PMS_P1;PMS_P2;Temp;Humidity;BMP_temperature;BMP_pressure;BME280_temperature;BME280_humidity;BME280_pressure;Samples;Min_cycle;Max_cycle;Signal;HPM_P1;HPM_P2
2021/05/22 00:01:49;;;;;;;3.75;1.38;;;19.50;46.40;;;;;;5093216;28;20107;-74
2021/05/22 00:04:14;;;;;;;2.65;0.80;;;19.50;46.40;;;;;;5093294;28;20029;-73
2021/05/22 00:06:40;;;;;;;2.20;0.90;;;19.50;46.40;;;;;;5091852;28;20381;-73
2021/05/22 00:09:06;;;;;;;3.28;0.90;;;19.50;46.40;;;;;;5093089;28;20028;-74
2021/05/22 00:11:34;;;;;;;4.38;1.15;;;19.50;46.40;;;;;;5093181;28;20025;-73
2021/05/22 00:14:00;;;;;;;2.78;1.00;;;19.50;46.50;;;;;;5093312;28;20090;-73
2021/05/22 00:16:25;;;;;;;3.45;0.93;;;19.50;46.40;;;;;;5093017;28;20226;-73
2021/05/22 00:18:51;;;;;;;3.08;0.88;;;19.50;46.40;;;;;;5093003;28;20119;-73
2021/05/22 00:21:16;;;;;;;3.17;0.88;;;19.50;46.40;;;;;;5092947;28;20020;-73
2021/05/22 00:23:42;;;;;;;2.63;0.90;;;19.50;46.40;;;;;;5092821;28;20052;-74
2021/05/22 00:26:08;;;;;;;3.53;0.90;;;19.50;46.40;;;;;;5092896;28;20055;-73
2021/05/22 00:28:33;;;;;;;3.28;1.13;;;19.50;46.50;;;;;;5091647;28;20467;-73
2021/05/22 00:30:59;;;;;;;3.63;1.10;;;19.50;46.40;;;;;;5092891;28;20491;-73
2021/05/22 00:33:24;;;;;;;2.60;0.90;;;19.50;46.40;;;;;;5092901;28;20020;-73
2021/05/22 00:35:50;;;;;;;4.15;1.02;;;19.50;46.50;;;;;;5092852;28;20365;-73
2021/05/22 00:38:16;;;;;;;2.88;0.88;;;19.50;46.40;;;;;;5092888;28;20468;-73
2021/05/22 00:40:41;;;;;;;4.05;1.00;;;19.50;46.50;;;;;;5092913;28;20474;-73
2021/05/22 00:43:07;;;;;;;3.08;0.77;;;19.50;46.40;;;;;;5092608;28;20048;-73
2021/05/22 00:45:35;;;;;;;3.45;1.00;;;19.50;46.40;;;;;;5092692;28;20023;-73
2021/05/22 00:48:01;;;;;;;2.45;0.90;;;19.50;46.50;;;;;;5092936;28;20024;-73
2021/05/22 00:50:32;;;;;;;1.95;0.95;;;19.50;46.40;;;;;;5091314;28;20047;-73
2021/05/22 00:52:58;;;;;;;2.78;0.90;;;19.40;46.50;;;;;;5092705;28;20020;-73
2021/05/22 00:55:25;;;;;;;2.83;1.00;;;19.40;46.40;;;;;;5092581;28;20431;-73
2021/05/22 00:57:51;;;;;;;3.25;1.17;;;19.50;46.40;;;;;;5092688;28;20016;-74
2021/05/22 01:00:38;;;;;;;2.50;0.80;;;19.40;46.40;;;;;;5092589;28;20024;-73
2021/05/22 01:03:05;;;;;;;3.35;1.10;;;19.40;46.50;;;;;;5092255;28;20086;-73
2021/05/22 01:05:31;;;;;;;1.73;0.75;;;19.40;46.50;;;;;;5092785;28;20028;-74
2021/05/22 01:07:57;;;;;;;4.45;1.33;;;19.40;46.50;;;;;;5092543;28;20024;-73
2021/05/22 01:10:23;;;;;;;2.78;0.85;;;19.40;46.40;;;;;;5091390;28;20024;-74
2021/05/22 01:12:53;;;;;;;2.40;0.70;;;19.40;46.40;;;;;;5091271;28;20063;-73
2021/05/22 01:15:24;;;;;;;1.98;0.85;;;19.40;46.50;;;;;;5091285;28;20055;-73
2021/05/22 01:17:51;;;;;;;2.72;0.88;;;19.40;46.50;;;;;;5092574;28;20028;-75
2021/05/22 01:20:24;;;;;;;4.28;1.30;;;19.40;46.50;;;;;;5092570;28;20456;-72
2021/05/22 01:22:53;;;;;;;2.38;0.95;;;19.40;46.50;;;;;;5092272;28;20048;-72
2021/05/22 01:25:29;;;;;;;2.50;0.80;;;19.40;46.40;;;;;;5090975;28;20025;-72
2021/05/22 01:27:57;;;;;;;3.70;0.90;;;19.40;46.40;;;;;;5092178;28;20026;-72
2021/05/22 01:30:23;;;;;;;2.05;0.93;;;19.40;46.40;;;;;;5093912;28;20103;-72
2021/05/22 01:32:49;;;;;;;2.80;0.93;;;19.40;46.50;;;;;;5096462;28;20104;-71
2021/05/22 01:35:16;;;;;;;2.22;1.00;;;19.40;46.50;;;;;;5094614;28;20024;-72
2021/05/22 01:37:41;;;;;;;3.47;1.10;;;19.40;46.50;;;;;;5095898;28;20020;-72
2021/05/22 01:40:08;;;;;;;2.00;0.88;;;19.40;46.40;;;;;;5095811;28;20024;-72
2021/05/22 01:42:34;;;;;;;2.38;0.90;;;19.30;46.40;;;;;;5095811;28;20505;-72
2021/05/22 01:45:03;;;;;;;3.28;0.90;;;19.30;46.40;;;;;;5095819;28;20161;-73
2021/05/22 01:47:31;;;;;;;3.33;0.85;;;19.30;46.40;;;;;;5095684;28;20028;-72
2021/05/22 01:50:00;;;;;;;3.17;1.00;;;19.30;46.40;;;;;;5095712;28;20031;-72
2021/05/22 01:52:26;;;;;;;3.45;1.02;;;19.30;46.40;;;;;;5095608;28;20367;-72
2021/05/22 01:54:53;;;;;;;2.88;1.05;;;19.30;46.50;;;;;;5096046;28;20107;-72
2021/05/22 01:57:19;;;;;;;2.45;0.90;;;19.30;46.50;;;;;;5095799;28;20024;-72
2021/05/22 01:59:45;;;;;;;2.58;1.15;;;19.30;46.40;;;;;;5095570;28;20031;-74
2021/05/22 02:02:11;;;;;;;3.42;1.17;;;19.30;46.40;;;;;;5094062;28;20097;-74
2021/05/22 02:04:41;;;;;;;2.97;0.95;;;19.30;46.50;;;;;;5095346;28;20016;-74
2021/05/22 02:07:08;;;;;;;2.65;0.98;;;19.30;46.40;;;;;;5095379;28;20032;-73
2021/05/22 02:09:34;;;;;;;3.95;1.40;;;19.30;46.40;;;;;;5095262;28;20028;-73
2021/05/22 02:12:03;;;;;;;3.75;1.23;;;19.30;46.50;;;;;;5093877;28;20502;-74
2021/05/22 02:14:34;;;;;;;3.92;1.15;;;19.30;46.50;;;;;;5095167;28;20032;-72
2021/05/22 02:17:04;;;;;;;3.78;1.20;;;19.30;46.50;;;;;;5095145;28;20031;-72
2021/05/22 02:19:32;;;;;;;2.83;0.95;;;19.20;46.50;;;;;;5095018;28;20016;-74
2021/05/22 02:22:01;;;;;;;3.38;1.25;;;19.30;46.50;;;;;;5094690;28;20044;-74
2021/05/22 02:24:27;;;;;;;4.10;1.00;;;19.30;46.40;;;;;;5095027;28;20058;-73
2021/05/22 02:27:00;;;;;;;3.90;1.27;;;19.30;46.40;;;;;;5094849;28;20442;-73
2021/05/22 02:29:27;;;;;;;3.63;1.23;;;19.20;46.50;;;;;;5094803;28;20039;-72
2021/05/22 02:31:53;;;;;;;3.35;1.33;;;19.30;46.50;;;;;;5094997;28;20152;-72
2021/05/22 02:34:29;;;;;;;4.35;1.50;;;19.20;46.50;;;;;;5094648;28;20095;-73
2021/05/22 02:36:57;;;;;;;3.03;1.27;;;19.20;46.40;;;;;;5094809;28;20020;-74
2021/05/22 02:39:23;;;;;;;4.03;1.50;;;19.20;46.40;;;;;;5094619;28;20421;-72
2021/05/22 02:41:51;;;;;;;4.60;1.55;;;19.20;46.50;;;;;;5094444;28;20024;-72
2021/05/22 02:44:18;;;;;;;5.75;1.55;;;19.20;46.40;;;;;;5094587;28;20043;-72
2021/05/22 02:46:47;;;;;;;4.93;1.60;;;19.20;46.40;;;;;;5094476;28;20024;-72
2021/05/22 02:49:17;;;;;;;2.20;1.00;;;19.20;46.40;;;;;;5094727;28;20032;-74
2021/05/22 02:51:44;;;;;;;4.65;1.65;;;19.20;46.40;;;;;;5094417;28;20500;-72
2021/05/22 02:54:10;;;;;;;5.13;1.77;;;19.20;46.40;;;;;;5094325;28;20376;-73
2021/05/22 02:56:36;;;;;;;3.33;1.50;;;19.20;46.40;;;;;;5094272;28;20028;-74
2021/05/22 02:59:03;;;;;;;3.75;1.63;;;19.20;46.50;;;;;;5094312;28;20069;-74
2021/05/22 03:01:30;;;;;;;5.15;2.17;;;19.20;46.50;;;;;;5092928;28;20027;-74
2021/05/22 03:03:57;;;;;;;3.72;1.50;;;19.20;46.50;;;;;;5094301;28;20039;-74
2021/05/22 03:06:23;;;;;;;5.05;1.73;;;19.20;46.40;;;;;;5094223;28;20016;-74
2021/05/22 03:08:50;;;;;;;3.80;1.55;;;19.20;46.50;;;;;;5094103;28;20046;-74
2021/05/22 03:11:18;;;;;;;4.13;1.73;;;19.20;46.40;;;;;;5094384;28;20045;-74
2021/05/22 03:13:43;;;;;;;3.20;1.60;;;19.20;46.40;;;;;;5094014;28;20388;-74
2021/05/22 03:16:09;;;;;;;5.55;2.13;;;19.20;46.50;;;;;;5092754;28;20020;-74
2021/05/22 03:18:35;;;;;;;3.95;1.60;;;19.20;46.40;;;;;;5094068;28;20504;-74
2021/05/22 03:21:00;;;;;;;5.07;1.92;;;19.20;46.40;;;;;;5094032;28;20071;-74
2021/05/22 03:23:26;;;;;;;3.58;1.52;;;19.20;46.40;;;;;;5092513;28;20395;-74
2021/05/22 03:25:52;;;;;;;3.70;1.65;;;19.20;46.40;;;;;;5092645;28;20104;-74
2021/05/22 03:28:17;;;;;;;4.90;1.55;;;19.20;46.40;;;;;;5094103;28;20371;-74
2021/05/22 03:30:43;;;;;;;3.45;1.58;;;19.20;46.40;;;;;;5093900;28;20038;-74
2021/05/22 03:33:08;;;;;;;5.38;2.35;;;19.20;46.40;;;;;;5093738;28;20023;-74
2021/05/22 03:35:34;;;;;;;4.95;2.10;;;19.20;46.40;;;;;;5093996;28;20463;-73
2021/05/22 03:38:00;;;;;;;4.82;2.10;;;19.20;46.40;;;;;;5093592;28;20471;-74
2021/05/22 03:40:25;;;;;;;4.18;2.03;;;19.20;46.40;;;;;;5093797;28;20046;-74
2021/05/22 03:42:51;;;;;;;5.03;1.95;;;19.20;46.40;;;;;;5093596;28;20085;-73
2021/05/22 03:45:17;;;;;;;3.67;1.58;;;19.20;46.40;;;;;;5093463;28;20020;-73
2021/05/22 03:47:43;;;;;;;4.43;2.03;;;19.20;46.40;;;;;;5093452;28;20380;-74
2021/05/22 03:50:09;;;;;;;5.07;1.95;;;19.20;46.40;;;;;;5093329;28;20023;-74
2021/05/22 03:52:34;;;;;;;6.80;2.42;;;19.20;46.40;;;;;;5093169;28;20024;-73
2021/05/22 03:55:00;;;;;;;5.22;2.15;;;19.20;46.40;;;;;;5093380;28;20032;-74
2021/05/22 03:57:25;;;;;;;5.25;2.00;;;19.20;46.30;;;;;;5093317;28;20073;-73
2021/05/22 03:59:51;;;;;;;4.28;1.85;;;19.20;46.30;;;;;;5093551;28;20494;-74
2021/05/22 04:02:16;;;;;;;5.20;2.00;;;19.20;46.30;;;;;;5093081;28;20503;-74
2021/05/22 04:04:42;;;;;;;4.53;2.00;;;19.20;46.30;;;;;;5093141;28;20047;-74
2021/05/22 04:07:07;;;;;;;5.25;2.10;;;19.10;46.30;;;;;;5093056;28;20511;-73
2021/05/22 04:09:33;;;;;;;5.50;2.10;;;19.20;46.30;;;;;;5092992;28;20038;-74
2021/05/22 04:11:58;;;;;;;4.78;2.22;;;19.20;46.30;;;;;;5092993;28;20022;-73
2021/05/22 04:14:24;;;;;;;5.68;2.38;;;19.20;46.30;;;;;;5091680;28;20107;-74
2021/05/22 04:16:50;;;;;;;4.68;2.00;;;19.20;46.30;;;;;;5092905;28;20077;-74
2021/05/22 04:19:15;;;;;;;4.32;1.90;;;19.20;46.30;;;;;;5092956;28;20021;-73
2021/05/22 04:21:41;;;;;;;4.90;1.88;;;19.20;46.30;;;;;;5092588;28;20032;-74
2021/05/22 04:24:06;;;;;;;3.85;1.80;;;19.10;46.30;;;;;;5092755;28;20115;-73
2021/05/22 04:26:32;;;;;;;5.20;2.58;;;19.20;46.30;;;;;;5092835;28;20016;-71
2021/05/22 04:28:57;;;;;;;5.35;2.55;;;19.20;46.30;;;;;;5092682;28;20056;-74
2021/05/22 04:31:23;;;;;;;5.38;2.33;;;19.20;46.30;;;;;;5092837;28;20055;-74
2021/05/22 04:33:48;;;;;;;4.50;2.25;;;19.20;46.20;;;;;;5092721;28;20107;-73
2021/05/22 04:36:14;;;;;;;5.18;2.53;;;19.20;46.30;;;;;;5092695;28;20020;-73
2021/05/22 04:38:40;;;;;;;5.65;2.42;;;19.20;46.20;;;;;;5092700;28;20076;-72
2021/05/22 04:41:06;;;;;;;5.18;2.17;;;19.20;46.20;;;;;;5092889;28;20083;-73
2021/05/22 04:43:31;;;;;;;5.63;2.20;;;19.20;46.20;;;;;;5092632;28;20036;-74
2021/05/22 04:45:57;;;;;;;4.82;2.28;;;19.20;46.30;;;;;;5092619;28;20032;-72
2021/05/22 04:48:23;;;;;;;6.18;2.25;;;19.20;46.20;;;;;;5091248;28;20093;-72
2021/05/22 04:50:48;;;;;;;5.88;2.63;;;19.20;46.20;;;;;;5092503;28;20099;-74
2021/05/22 04:53:14;;;;;;;4.43;2.08;;;19.20;46.20;;;;;;5092512;28;20110;-74
2021/05/22 04:55:40;;;;;;;3.95;1.83;;;19.20;46.20;;;;;;5092759;28;20069;-72
2021/05/22 04:58:05;;;;;;;5.32;2.17;;;19.20;46.20;;;;;;5092519;28;20103;-72
2021/05/22 05:00:31;;;;;;;4.85;2.53;;;19.20;46.20;;;;;;5093044;28;20024;-72
2021/05/22 05:02:57;;;;;;;6.05;2.33;;;19.20;46.20;;;;;;5092436;28;20044;-72
2021/05/22 05:05:23;;;;;;;5.28;2.40;;;19.10;46.30;;;;;;5094114;28;20032;-72
2021/05/22 05:07:49;;;;;;;5.95;2.22;;;19.20;46.20;;;;;;5096717;28;20112;-72
2021/05/22 05:10:15;;;;;;;5.05;2.40;;;19.10;46.30;;;;;;5096420;28;20048;-72
2021/05/22 05:12:41;;;;;;;4.57;2.33;;;19.10;46.30;;;;;;5096360;28;20032;-74
2021/05/22 05:15:07;;;;;;;4.72;2.00;;;19.10;46.20;;;;;;5096392;28;20086;-73
2021/05/22 05:17:33;;;;;;;6.00;2.75;;;19.10;46.30;;;;;;5096389;28;20031;-74
2021/05/22 05:19:58;;;;;;;6.03;2.42;;;19.10;46.30;;;;;;5096121;28;20106;-74
2021/05/22 05:22:26;;;;;;;5.20;2.28;;;19.10;46.20;;;;;;5096137;28;20048;-74
2021/05/22 05:24:52;;;;;;;6.13;2.20;;;19.20;46.20;;;;;;5096116;28;20476;-74
2021/05/22 05:27:17;;;;;;;7.18;2.83;;;19.20;46.20;;;;;;5096190;28;20058;-74
2021/05/22 05:29:43;;;;;;;5.60;2.40;;;19.10;46.20;;;;;;5096187;28;20483;-74
2021/05/22 05:32:09;;;;;;;4.50;2.42;;;19.20;46.20;;;;;;5095970;28;20020;-74
2021/05/22 05:34:35;;;;;;;4.55;2.30;;;19.20;46.20;;;;;;5095915;28;20067;-73
2021/05/22 05:37:00;;;;;;;4.53;2.05;;;19.10;46.20;;;;;;5095908;28;20055;-73
2021/05/22 05:39:26;;;;;;;5.05;2.30;;;19.10;46.20;;;;;;5095953;28;20024;-74
2021/05/22 05:41:52;;;;;;;5.80;2.20;;;19.20;46.20;;;;;;5096188;28;20016;-74
2021/05/22 05:44:17;;;;;;;6.10;2.50;;;19.10;46.20;;;;;;5095999;28;20028;-73
2021/05/22 05:46:43;;;;;;;5.65;2.30;;;19.20;46.20;;;;;;5095808;28;20024;-74
2021/05/22 05:49:08;;;;;;;5.15;2.20;;;19.10;46.20;;;;;;5095964;28;20026;-74
2021/05/22 05:51:34;;;;;;;4.25;1.98;;;19.10;46.20;;;;;;5095902;28;20105;-74
2021/05/22 05:53:59;;;;;;;6.22;2.80;;;19.10;46.20;;;;;;5095598;28;20097;-74
2021/05/22 05:56:25;;;;;;;4.47;2.30;;;19.10;46.20;;;;;;5095750;28;20024;-73
2021/05/22 05:58:50;;;;;;;5.53;2.28;;;19.10;46.20;;;;;;5095466;28;20032;-72
2021/05/22 06:01:16;;;;;;;5.80;2.33;;;19.10;46.20;;;;;;5095465;28;20313;-72
2021/05/22 06:03:43;;;;;;;4.50;2.25;;;19.10;46.20;;;;;;5095578;28;20043;-72
2021/05/22 06:06:08;;;;;;;5.95;2.22;;;19.10;46.20;;;;;;5095368;28;20341;-74
2021/05/22 06:08:34;;;;;;;6.97;2.63;;;19.10;46.20;;;;;;5095469;28;20030;-74
2021/05/22 06:11:01;;;;;;;3.95;1.98;;;19.10;46.20;;;;;;5095480;28;20119;-73
2021/05/22 06:13:30;;;;;;;5.57;2.10;;;19.10;46.20;;;;;;5095063;28;20055;-73
2021/05/22 06:16:26;;;;;;;5.90;2.40;;;19.10;46.30;;;;;;5093335;28;20058;-72
2021/05/22 06:18:45;;;;;;;5.38;2.28;;;19.10;46.20;;;;;;5094740;28;20491;-72
2021/05/22 06:21:10;;;;;;;4.97;2.30;;;19.10;46.20;;;;;;5094912;28;20052;-73
2021/05/22 06:23:36;;;;;;;5.22;2.28;;;19.10;46.30;;;;;;5094721;28;20088;-73
2021/05/22 06:26:03;;;;;;;4.85;2.08;;;19.10;46.30;;;;;;5094948;28;20415;-72
2021/05/22 06:28:29;;;;;;;4.85;2.28;;;19.10;46.30;;;;;;5094849;28;20024;-72
2021/05/22 06:30:55;;;;;;;4.32;2.10;;;19.10;46.20;;;;;;5095055;28;20122;-72
2021/05/22 06:33:21;;;;;;;5.53;2.30;;;19.10;46.20;;;;;;5094704;28;20100;-72
2021/05/22 06:35:47;;;;;;;4.47;1.98;;;19.10;46.30;;;;;;5094894;28;20467;-72
2021/05/22 06:38:12;;;;;;;5.25;1.90;;;19.10;46.30;;;;;;5094907;28;20050;-72
2021/05/22 06:40:38;;;;;;;4.13;1.90;;;19.10;46.30;;;;;;5094611;28;20146;-73
2021/05/22 06:43:03;;;;;;;5.18;2.00;;;19.10;46.30;;;;;;5094545;28;20025;-74
2021/05/22 06:45:39;;;;;;;5.82;2.53;;;19.10;46.30;;;;;;5094469;28;20032;-72
2021/05/22 06:48:06;;;;;;;4.95;2.35;;;19.10;46.20;;;;;;5094551;28;20028;-72
2021/05/22 06:50:32;;;;;;;4.75;1.77;;;19.10;46.20;;;;;;5094360;28;20024;-73
2021/05/22 06:52:57;;;;;;;5.57;2.22;;;19.10;46.20;;;;;;5094548;28;20169;-73
2021/05/22 06:55:23;;;;;;;5.53;2.13;;;19.10;46.20;;;;;;5093066;28;20523;-75
2021/05/22 06:57:49;;;;;;;5.63;2.60;;;19.10;46.20;;;;;;5094299;28;20444;-73
2021/05/22 07:00:15;;;;;;;6.20;2.10;;;19.10;46.20;;;;;;5094273;28;20105;-73
2021/05/22 07:02:40;;;;;;;4.43;2.00;;;19.10;46.30;;;;;;5094090;28;20046;-74
2021/05/22 07:05:06;;;;;;;4.72;1.90;;;19.10;46.30;;;;;;5094288;28;20020;-74
2021/05/22 07:07:32;;;;;;;4.68;1.88;;;19.10;46.30;;;;;;5092763;28;20020;-74
2021/05/22 07:09:58;;;;;;;4.28;1.90;;;19.10;46.30;;;;;;5094085;28;20030;-74
2021/05/22 07:12:23;;;;;;;6.03;1.95;;;19.10;46.30;;;;;;5094043;28;20020;-74
2021/05/22 07:14:49;;;;;;;5.28;2.20;;;19.10;46.30;;;;;;5093920;28;20032;-74
2021/05/22 07:17:14;;;;;;;5.50;1.92;;;19.00;46.30;;;;;;5093991;28;20031;-74
2021/05/22 07:19:40;;;;;;;4.35;1.70;;;19.10;46.30;;;;;;5093900;28;20062;-74
2021/05/22 07:22:05;;;;;;;6.57;2.28;;;19.00;46.30;;;;;;5093904;28;20055;-74
2021/05/22 07:24:31;;;;;;;5.30;1.95;;;19.10;46.20;;;;;;5093872;28;20028;-73
2021/05/22 07:26:56;;;;;;;4.97;2.33;;;19.10;46.30;;;;;;5093570;28;20112;-74
2021/05/22 07:29:22;;;;;;;3.72;1.77;;;19.10;46.30;;;;;;5092018;28;20487;-74
2021/05/22 07:31:48;;;;;;;4.20;1.90;;;19.10;46.30;;;;;;5093889;28;20020;-73
2021/05/22 07:34:14;;;;;;;5.03;2.13;;;19.10;46.30;;;;;;5093787;28;20027;-74
2021/05/22 07:36:40;;;;;;;5.18;2.10;;;19.10;46.30;;;;;;5092417;28;20024;-73
2021/05/22 07:39:10;;;;;;;4.70;1.80;;;19.00;46.30;;;;;;5093706;28;20172;-73
2021/05/22 07:41:36;;;;;;;5.22;2.20;;;19.10;46.30;;;;;;5093886;28;20028;-73
2021/05/22 07:44:02;;;;;;;4.80;2.20;;;19.10;46.30;;;;;;5093512;28;20126;-74
2021/05/22 07:46:28;;;;;;;4.28;1.75;;;19.10;46.30;;;;;;5093707;28;20034;-74
2021/05/22 07:48:53;;;;;;;3.88;1.50;;;19.10;46.30;;;;;;5093874;28;20024;-75
2021/05/22 07:51:19;;;;;;;3.78;1.73;;;19.10;46.30;;;;;;5093588;28;20038;-73
2021/05/22 07:53:45;;;;;;;4.03;1.70;;;19.10;46.30;;;;;;5093453;28;20103;-73
2021/05/22 07:56:11;;;;;;;4.53;1.70;;;19.00;46.30;;;;;;5093428;28;20480;-72
2021/05/22 07:58:36;;;;;;;3.67;1.73;;;19.10;46.30;;;;;;5093237;28;20032;-74
2021/05/22 08:01:02;;;;;;;4.32;1.70;;;19.00;46.30;;;;;;5093549;28;20024;-73
2021/05/22 08:03:28;;;;;;;4.10;1.90;;;19.00;46.30;;;;;;5093118;28;20036;-73
2021/05/22 08:05:54;;;;;;;5.13;1.90;;;19.10;46.30;;;;;;5093150;28;20024;-73
2021/05/22 08:08:20;;;;;;;3.55;1.60;;;19.10;46.30;;;;;;5093026;28;20024;-73
2021/05/22 08:10:46;;;;;;;3.85;1.60;;;19.00;46.30;;;;;;5093032;28;20056;-72
2021/05/22 08:13:12;;;;;;;3.58;1.67;;;19.10;46.40;;;;;;5093276;28;20039;-73
2021/05/22 08:15:38;;;;;;;4.88;1.90;;;19.00;46.40;;;;;;5093025;28;20096;-73
2021/05/22 08:18:05;;;;;;;4.82;1.95;;;19.00;46.40;;;;;;5093065;28;20392;-72
2021/05/22 08:20:30;;;;;;;4.32;1.67;;;19.00;46.40;;;;;;5093148;28;20490;-73
2021/05/22 08:22:56;;;;;;;4.07;1.75;;;19.00;46.30;;;;;;5091558;28;20056;-73
2021/05/22 08:25:22;;;;;;;4.72;1.85;;;19.10;46.30;;;;;;5092867;28;20119;-72
2021/05/22 08:27:50;;;;;;;4.15;1.88;;;19.10;46.40;;;;;;5092791;28;20499;-72
2021/05/22 08:30:16;;;;;;;4.35;1.80;;;19.10;46.40;;;;;;5093000;28;20025;-72
2021/05/22 08:32:42;;;;;;;4.13;1.60;;;19.10;46.40;;;;;;5092728;28;20085;-72
2021/05/22 08:35:08;;;;;;;3.75;1.80;;;19.10;46.40;;;;;;5092698;28;20032;-74
2021/05/22 08:37:35;;;;;;;4.18;1.70;;;19.10;46.40;;;;;;5092653;28;20511;-74
2021/05/22 08:40:01;;;;;;;3.63;1.80;;;19.10;46.30;;;;;;5094309;28;20023;-74
2021/05/22 08:42:28;;;;;;;2.63;1.10;;;19.10;46.30;;;;;;5096845;28;20104;-72
2021/05/22 08:45:04;;;;;;;5.13;1.70;;;19.10;46.40;;;;;;5096934;28;20026;-72
2021/05/22 08:47:30;;;;;;;4.80;1.70;;;19.10;46.30;;;;;;5096821;28;20486;-73
2021/05/22 08:49:55;;;;;;;3.78;1.40;;;19.10;46.40;;;;;;5097082;28;20058;-74
2021/05/22 08:52:22;;;;;;;5.40;1.55;;;19.10;46.40;;;;;;5096700;28;20016;-74
2021/05/22 08:54:49;;;;;;;3.53;1.42;;;19.10;46.40;;;;;;5096660;28;20031;-74
2021/05/22 08:57:16;;;;;;;4.43;1.90;;;19.10;46.40;;;;;;5096722;28;20121;-72
2021/05/22 08:59:44;;;;;;;4.25;1.60;;;19.10;46.40;;;;;;5096596;28;20073;-73
2021/05/22 09:02:12;;;;;;;4.32;1.70;;;19.00;46.40;;;;;;5096733;28;20028;-73
2021/05/22 09:05:09;;;;;;;4.47;1.60;;;19.10;46.50;;;;;;5096483;28;20479;-73
2021/05/22 09:07:40;;;;;;;5.00;1.88;;;19.00;46.50;;;;;;5096829;28;20055;-74
2021/05/22 09:10:18;;;;;;;4.60;1.88;;;19.00;46.50;;;;;;5096508;28;20052;-73
2021/05/22 09:12:47;;;;;;;5.43;1.58;;;19.00;46.60;;;;;;5096483;28;20020;-74
2021/05/22 09:15:19;;;;;;;3.92;1.40;;;19.00;46.60;;;;;;5096307;28;20031;-74
2021/05/22 09:17:49;;;;;;;4.53;1.75;;;19.10;46.60;;;;;;5096241;28;20031;-74
2021/05/22 09:20:18;;;;;;;4.38;1.60;;;19.00;46.60;;;;;;5096342;28;20020;-74
2021/05/22 09:22:45;;;;;;;3.25;1.50;;;19.10;46.50;;;;;;5094617;28;20499;-74
2021/05/22 09:25:11;;;;;;;4.45;1.70;;;19.10;46.50;;;;;;5096187;28;20032;-73
2021/05/22 09:27:41;;;;;;;4.20;1.75;;;19.10;46.50;;;;;;5094690;28;20023;-73
2021/05/22 09:30:14;;;;;;;2.95;1.45;;;19.10;46.50;;;;;;5096080;28;20039;-73
2021/05/22 09:32:41;;;;;;;4.35;1.77;;;19.10;46.50;;;;;;5095828;28;20105;-72
2021/05/22 09:35:08;;;;;;;3.55;1.40;;;19.10;46.50;;;;;;5095860;28;20495;-72
2021/05/22 09:37:55;;;;;;;3.28;1.52;;;19.10;46.50;;;;;;5095866;28;20055;-74
2021/05/22 09:40:24;;;;;;;3.70;1.60;;;19.10;46.50;;;;;;5095850;28;20077;-73
2021/05/22 09:42:50;;;;;;;4.50;1.52;;;19.10;46.50;;;;;;5095704;28;20415;-72
2021/05/22 09:45:27;;;;;;;4.35;1.58;;;19.10;46.50;;;;;;5095729;28;20031;-73
2021/05/22 09:47:55;;;;;;;4.90;1.80;;;19.10;46.50;;;;;;5095769;28;20058;-73
2021/05/22 09:50:35;;;;;;;4.60;1.52;;;19.10;46.50;;;;;;5095152;28;20036;-72
2021/05/22 09:53:18;;;;;;;4.93;2.00;;;19.10;46.50;;;;;;5095409;28;20031;-73
2021/05/22 09:56:11;;;;;;;4.90;1.55;;;19.10;46.50;;;;;;5094297;28;20024;-73
2021/05/22 09:58:39;;;;;;;4.00;1.50;;;19.10;46.60;;;;;;5095652;28;20032;-73
2021/05/22 10:01:05;;;;;;;3.38;1.27;;;19.10;46.60;;;;;;5096123;28;20034;-73
2021/05/22 10:03:31;;;;;;;2.90;1.20;;;19.10;46.60;;;;;;5096175;28;20118;-73
2021/05/22 10:05:56;;;;;;;3.40;1.45;;;19.10;46.60;;;;;;5096190;28;20242;-73
2021/05/22 10:08:22;;;;;;;3.03;1.38;;;19.10;46.70;;;;;;5095834;28;20073;-72
2021/05/22 10:10:49;;;;;;;4.38;1.83;;;19.00;46.70;;;;;;5095797;28;20095;-73
2021/05/22 10:13:18;;;;;;;3.20;1.30;;;19.00;46.80;;;;;;5095553;28;20063;-72
2021/05/22 10:15:46;;;;;;;3.22;1.50;;;19.00;46.80;;;;;;5095433;28;20055;-72
2021/05/22 10:18:14;;;;;;;3.72;1.40;;;19.00;46.80;;;;;;5095670;28;20035;-73
2021/05/22 10:20:40;;;;;;;5.05;1.80;;;19.00;46.70;;;;;;5094604;28;20027;-73
2021/05/22 10:23:07;;;;;;;3.58;1.13;;;19.00;46.80;;;;;;5095522;28;20071;-73
2021/05/22 10:25:33;;;;;;;3.53;1.23;;;19.10;46.80;;;;;;5095854;28;20078;-73
2021/05/22 10:27:59;;;;;;;4.80;1.73;;;19.00;46.70;;;;;;5095758;28;20464;-73
2021/05/22 10:30:25;;;;;;;4.20;1.85;;;19.00;46.70;;;;;;5095823;28;20396;-72
2021/05/22 10:33:02;;;;;;;4.63;1.55;;;19.00;46.70;;;;;;5095775;28;20027;-73
2021/05/22 10:35:28;;;;;;;4.05;1.42;;;19.00;46.80;;;;;;5095625;28;20047;-72
2021/05/22 10:37:54;;;;;;;3.60;1.45;;;19.10;46.80;;;;;;5095399;28;20371;-73
2021/05/22 10:40:41;;;;;;;3.03;1.35;;;19.00;46.80;;;;;;5095533;28;20032;-73
2021/05/22 10:43:07;;;;;;;2.75;1.20;;;19.00;46.80;;;;;;5095322;28;20066;-73
2021/05/22 10:45:38;;;;;;;3.75;1.40;;;19.10;46.80;;;;;;5095237;28;20020;-73
2021/05/22 10:48:29;;;;;;;5.20;1.40;;;19.00;46.80;;;;;;5095124;28;20035;-73
2021/05/22 10:50:55;;;;;;;3.20;1.35;;;19.00;46.80;;;;;;5094879;28;20078;-73
2021/05/22 10:53:33;;;;;;;4.00;1.42;;;19.10;46.80;;;;;;5095295;28;20028;-73
2021/05/22 10:56:04;;;;;;;4.20;1.38;;;19.00;46.80;;;;;;5095326;28;20060;-73
2021/05/22 10:58:30;;;;;;;3.78;1.52;;;19.00;46.90;;;;;;5094042;28;20028;-73
2021/05/22 11:01:23;;;;;;;4.28;1.13;;;19.10;46.90;;;;;;5095098;28;20024;-73
2021/05/22 11:04:25;;;;;;;2.90;1.40;;;19.00;46.90;;;;;;5093919;28;20288;-73
2021/05/22 11:06:55;;;;;;;4.20;1.30;;;19.00;46.90;;;;;;5094953;28;20099;-74
2021/05/22 11:09:27;;;;;;;3.78;1.30;;;19.00;46.90;;;;;;5094658;28;20028;-74
2021/05/22 11:12:12;;;;;;;2.78;1.20;;;19.00;46.90;;;;;;5094859;28;20043;-74
2021/05/22 11:14:47;;;;;;;3.28;1.25;;;19.00;46.90;;;;;;5094929;28;20032;-73
2021/05/22 11:17:21;;;;;;;3.58;1.38;;;19.00;46.90;;;;;;5094880;28;20044;-74
2021/05/22 11:20:06;;;;;;;4.53;1.40;;;19.00;46.90;;;;;;5094936;28;20024;-74
2021/05/22 11:22:56;;;;;;;3.60;1.67;;;19.00;46.90;;;;;;5094538;28;20051;-74
2021/05/22 11:25:23;;;;;;;4.30;1.20;;;19.00;47.00;;;;;;5086564;28;20043;-73
2021/05/22 11:27:51;;;;;;;3.28;1.40;;;19.00;47.00;;;;;;5099724;28;20016;-74
2021/05/22 11:30:41;;;;;;;2.92;1.20;;;19.00;47.00;;;;;;5095911;28;20016;-74
2021/05/22 11:33:09;;;;;;;5.18;1.23;;;19.00;47.00;;;;;;5086830;28;20176;-74
2021/05/22 11:35:50;;;;;;;3.67;1.27;;;19.00;47.00;;;;;;5094198;28;20022;-74
2021/05/22 11:38:19;;;;;;;5.32;1.98;;;19.00;47.00;;;;;;5094542;28;20156;-74
2021/05/22 11:40:44;;;;;;;4.18;1.25;;;19.00;47.00;;;;;;5101401;28;20020;-74
2021/05/22 11:43:15;;;;;;;4.15;1.20;;;19.00;47.10;;;;;;5094085;28;20491;-74
2021/05/22 11:45:46;;;;;;;3.13;1.30;;;19.00;47.10;;;;;;5093994;28;20024;-73
2021/05/22 11:48:25;;;;;;;2.55;1.20;;;19.00;47.10;;;;;;5093549;28;20082;-73
2021/05/22 11:50:53;;;;;;;3.58;1.27;;;19.00;47.10;;;;;;5093873;28;20020;-74
2021/05/22 11:53:19;;;;;;;3.22;1.33;;;19.00;47.10;;;;;;5093762;28;20098;-74
2021/05/22 11:55:56;;;;;;;3.92;1.35;;;19.00;47.10;;;;;;5093737;28;20043;-73
2021/05/22 11:58:22;;;;;;;3.53;1.30;;;19.00;47.10;;;;;;5093983;28;20032;-73
2021/05/22 12:00:48;;;;;;;2.83;1.33;;;19.00;47.10;;;;;;5094097;28;20073;-73
2021/05/22 12:03:23;;;;;;;3.05;1.20;;;19.00;47.10;;;;;;5093640;28;20059;-73
2021/05/22 12:05:49;;;;;;;2.85;1.10;;;19.00;47.10;;;;;;5093821;28;20471;-73
2021/05/22 12:08:17;;;;;;;2.50;1.17;;;19.00;47.10;;;;;;5094127;28;20073;-73
2021/05/22 12:10:42;;;;;;;3.38;1.33;;;19.00;47.10;;;;;;5093542;28;20089;-73
2021/05/22 12:13:08;;;;;;;2.53;1.20;;;19.00;47.20;;;;;;5093652;28;20464;-74
2021/05/22 12:15:34;;;;;;;2.17;0.93;;;19.00;47.20;;;;;;5094002;28;20024;-74
2021/05/22 12:18:04;;;;;;;3.83;1.33;;;19.00;47.20;;;;;;5093455;28;20479;-74
2021/05/22 12:20:50;;;;;;;3.83;1.50;;;19.00;47.20;;;;;;5093438;28;20143;-73
2021/05/22 12:23:29;;;;;;;3.42;1.15;;;19.00;47.20;;;;;;5093375;28;20047;-74
2021/05/22 12:25:57;;;;;;;3.20;1.17;;;19.00;47.20;;;;;;5093492;28;20502;-74
2021/05/22 12:28:23;;;;;;;2.85;1.30;;;19.00;47.20;;;;;;5093175;28;20036;-74
2021/05/22 12:31:00;;;;;;;3.35;1.30;;;19.00;47.20;;;;;;5093002;28;20012;-74
2021/05/22 12:33:28;;;;;;;3.40;1.27;;;19.00;47.30;;;;;;5093149;28;20024;-74
2021/05/22 12:36:08;;;;;;;2.08;1.10;;;19.00;47.30;;;;;;5093683;28;20028;-73
2021/05/22 12:38:35;;;;;;;4.07;1.30;;;19.00;47.30;;;;;;5093544;28;20031;-74
2021/05/22 12:41:01;;;;;;;3.35;1.13;;;19.00;47.30;;;;;;5093300;28;20016;-74
2021/05/22 12:43:44;;;;;;;3.75;1.10;;;19.00;47.30;;;;;;5093637;28;20042;-74
2021/05/22 12:46:31;;;;;;;3.60;1.20;;;19.00;47.30;;;;;;5093920;28;20054;-73
2021/05/22 12:49:08;;;;;;;3.10;1.10;;;19.00;47.30;;;;;;5093986;28;20107;-74
2021/05/22 12:51:34;;;;;;;3.13;1.15;;;19.00;47.30;;;;;;5093343;28;20493;-75
2021/05/22 12:54:23;;;;;;;4.72;1.85;;;19.00;47.40;;;;;;5093562;28;20032;-74